AirNav   Air Wisconsin Up To $57,000 Bonus
 
 1724 users online  

0NK2 Westwind Farm Airport
Charlton, New York, USA

GOING TO CHARLTON?


FAA INFORMATION EFFECTIVE 02 JANUARY 2020

Location

FAA Identifier: 0NK2
Lat/Long: 42-59-00.2700N 074-00-58.4560W
42-59.004500N 074-00.974267W
42.9834083,-74.0162378
(estimated)
Elevation: 800 ft. / 244 m (estimated)
Variation: 14W (1980)
From city: 1 mile S of CHARLTON, NY
Time zone: UTC -5 (UTC -4 during Daylight Saving Time)
Zip code: 12074

Airport Operations

Airport use: Private use. Permission required prior to landing
Activation date: 11/1986
Control tower: no
ARTCC: BOSTON CENTER
FSS: BURLINGTON FLIGHT SERVICE STATION
Attendance: UNATNDD
Wind indicator: yes
Segmented circle: no

Airport Communications

WX AWOS-3 at 5B2 (8 nm NE): 132.025 (518-884-9289)
WX AWOS-3 at SCH (9 nm SE): 119.275 (518-399-6586)
WX AWOS-3 at NY0 (14 nm W): 119.225 (518-762-0322)
WX ASOS at ALB (17 nm SE): PHONE 518-464-6423

Nearby radio navigation aids

VOR radial/distance  VOR name  Freq  Var
ALBr340/17.0ALBANY VORTAC115.3013W
GFLr233/27.8GLENS FALLS VORTAC110.2014W
CAMr283/29.5CAMBRIDGE VOR/DME115.0014W

 
NDB name  Hdg/Dist  Freq  Var  ID
HUNTER349/8.635614WHEU .... . ..-
JOHNSTOWN108/13.952314WJJH .--- .--- ....

Airport Services

Runway Information

Runway 10/28

Dimensions: 3000 x 100 ft. / 914 x 30 m
Surface: turf
RUNWAY 10  RUNWAY 28
Traffic pattern: leftright
Displaced threshold: 500 ft.no
Obstructions: 20 ft. pline, marked and lighted, 100 ft. from runwaynone

Airport Ownership and Management from official FAA records

Ownership: Privately-owned
Owner: CHARLES MOTHON
1342 SACANDAGA RD
GALWAY, NY 12074
Phone 518-882-9522
Manager: CHARLES MOTHON
1342 SACANDAGA RD
GALWAY, NY 12074
Phone 518-882-6945
ADDITIONAL CONTACT: LARRY MOTHON 518-496-2625

Airport Operational Statistics

Aircraft based on the field: 3
Single engine airplanes: 3
    

Additional Remarks

OWNER DESIRES ARPT NOT BE CHARTED.
FOR CD CTC ALBANY APCH AT 518-862-2299.

Instrument Procedures

There are no published instrument procedures at 0NK2.

Some nearby airports with instrument procedures:

5B2 - Saratoga County Airport (8 nm NE)
KSCH - Schenectady County Airport (9 nm SE)
NY0 - Fulton County Airport (14 nm W)
KALB - Albany International Airport (17 nm SE)
4B0 - South Albany Airport (27 nm S)
 
Loc | Ops | Rwys | IFR | FBO | Links
Com | Nav | Svcs | Stats | Notes
Area around 0NK2 (Westwind Farm Airport)
 
Road maps at: MapQuest Bing Google
 
Aerial photo
No photo
 
Sectional chart

 
Airport distance calculator
Flying to Westwind Farm Airport? Find the distance to fly.

From to 0NK2

Sunrise and sunset
Times for 27-Jan-2020
 Local
(UTC-5)
 Zulu
(UTC)
Morning civil twilight06:4711:47
Sunrise07:1712:17
Sunset17:0122:01
Evening civil twilight17:3122:31

Current date and time
Zulu (UTC)  27-Jan-2020 23:29:40
Local (UTC-5)  27-Jan-2020 18:29:40
 
METAR
KSCH 
9nm SE 
270146Z 25003KT 10SM SCT032 BKN038 OVC044 03/00 A2970 RMK LAST
KNY0 
14nm W 
272319Z AUTO 30005KT 10SM OVC050 00/M01 A2966 RMK AO2
KALB 
17nm SE 
272251Z 29011KT 10SM FEW047 BKN060 03/M02 A2967 RMK AO2 SLP049 T00331022
TAF
KALB 
17nm SE 
271736Z 2718/2818 27012G19KT P6SM FEW025 SCT030 BKN060 FM272200 28006KT P6SM BKN045 FM281200 30009KT P6SM VCSH SCT020 OVC030 FM281600 32006KT P6SM BKN045
NOTAMs
Click for the latest NOTAMs
NOTAMs are issued by the DoD/FAA and will open in a separate window not controlled by AirNav.

 

 
 

Would you like to see your business listed on this page?

 If your business provides an interesting product or service to pilots, flight crews, aircraft, or users of the Westwind Farm Airport, you should consider listing it here.  To start the listing process, click on the button below
 
Add a business
 

Other Pages about Westwind Farm Airport

Update a link
 
Copyright © AirNav, LLC. All rights reserved. Privacy Policy  Contact